sensor_id;sensor_type;location;lat;lon;timestamp;P1;durP1;ratioP1;P2;durP2;ratioP2
16159;SDS011;8185;57.818;15.224;2022-10-16T00:01:39;4.17;;;3.63;;
16159;SDS011;8185;57.818;15.224;2022-10-16T00:04:06;4.40;;;3.63;;
16159;SDS011;8185;57.818;15.224;2022-10-16T00:06:35;5.67;;;3.77;;
16159;SDS011;8185;57.818;15.224;2022-10-16T00:09:03;4.20;;;3.50;;
16159;SDS011;8185;57.818;15.224;2022-10-16T00:11:33;4.17;;;3.77;;
16159;SDS011;8185;57.818;15.224;2022-10-16T00:14:02;4.70;;;3.30;;
16159;SDS011;8185;57.818;15.224;2022-10-16T00:16:31;5.37;;;3.40;;
16159;SDS011;8185;57.818;15.224;2022-10-16T00:18:58;4.60;;;3.43;;
16159;SDS011;8185;57.818;15.224;2022-10-16T00:21:27;4.23;;;3.20;;
16159;SDS011;8185;57.818;15.224;2022-10-16T00:23:55;5.07;;;3.37;;
16159;SDS011;8185;57.818;15.224;2022-10-16T00:26:25;6.80;;;3.43;;
16159;SDS011;8185;57.818;15.224;2022-10-16T00:28:55;6.43;;;4.20;;
16159;SDS011;8185;57.818;15.224;2022-10-16T00:31:22;4.90;;;3.80;;
16159;SDS011;8185;57.818;15.224;2022-10-16T00:33:50;7.13;;;4.50;;
16159;SDS011;8185;57.818;15.224;2022-10-16T00:36:18;7.17;;;4.43;;
16159;SDS011;8185;57.818;15.224;2022-10-16T00:38:49;5.20;;;3.77;;
16159;SDS011;8185;57.818;15.224;2022-10-16T00:41:19;4.83;;;3.60;;
16159;SDS011;8185;57.818;15.224;2022-10-16T00:43:49;7.43;;;4.40;;
16159;SDS011;8185;57.818;15.224;2022-10-16T00:46:19;7.03;;;4.13;;
16159;SDS011;8185;57.818;15.224;2022-10-16T00:48:50;5.87;;;4.43;;
16159;SDS011;8185;57.818;15.224;2022-10-16T00:51:21;6.40;;;4.87;;
16159;SDS011;8185;57.818;15.224;2022-10-16T00:53:52;7.97;;;4.90;;
16159;SDS011;8185;57.818;15.224;2022-10-16T00:56:19;8.17;;;5.07;;
16159;SDS011;8185;57.818;15.224;2022-10-16T00:58:47;7.43;;;4.90;;
16159;SDS011;8185;57.818;15.224;2022-10-16T01:01:14;6.43;;;5.30;;
16159;SDS011;8185;57.818;15.224;2022-10-16T01:03:43;7.53;;;5.70;;
16159;SDS011;8185;57.818;15.224;2022-10-16T01:06:21;7.27;;;5.53;;
16159;SDS011;8185;57.818;15.224;2022-10-16T01:08:58;8.13;;;6.60;;
16159;SDS011;8185;57.818;15.224;2022-10-16T01:11:37;7.57;;;5.53;;
16159;SDS011;8185;57.818;15.224;2022-10-16T01:14:11;8.17;;;5.80;;
16159;SDS011;8185;57.818;15.224;2022-10-16T01:16:47;7.53;;;5.60;;
16159;SDS011;8185;57.818;15.224;2022-10-16T01:19:24;7.93;;;5.83;;
16159;SDS011;8185;57.818;15.224;2022-10-16T01:22:03;8.40;;;5.97;;
16159;SDS011;8185;57.818;15.224;2022-10-16T01:24:32;7.13;;;5.27;;
16159;SDS011;8185;57.818;15.224;2022-10-16T01:27:08;8.20;;;5.93;;
16159;SDS011;8185;57.818;15.224;2022-10-16T01:29:39;8.60;;;6.03;;
16159;SDS011;8185;57.818;15.224;2022-10-16T01:32:16;10.73;;;6.80;;
16159;SDS011;8185;57.818;15.224;2022-10-16T01:34:52;7.77;;;5.90;;
16159;SDS011;8185;57.818;15.224;2022-10-16T01:37:27;8.57;;;5.70;;
16159;SDS011;8185;57.818;15.224;2022-10-16T01:40:00;9.87;;;7.47;;
16159;SDS011;8185;57.818;15.224;2022-10-16T01:42:35;8.23;;;6.67;;
16159;SDS011;8185;57.818;15.224;2022-10-16T01:45:05;11.83;;;7.27;;
16159;SDS011;8185;57.818;15.224;2022-10-16T01:47:36;9.23;;;7.17;;
16159;SDS011;8185;57.818;15.224;2022-10-16T01:50:06;12.03;;;6.63;;
16159;SDS011;8185;57.818;15.224;2022-10-16T01:52:35;8.97;;;6.63;;
16159;SDS011;8185;57.818;15.224;2022-10-16T01:55:07;9.10;;;6.67;;
16159;SDS011;8185;57.818;15.224;2022-10-16T01:57:38;9.13;;;7.27;;
16159;SDS011;8185;57.818;15.224;2022-10-16T02:00:10;9.80;;;7.17;;
16159;SDS011;8185;57.818;15.224;2022-10-16T02:02:39;10.03;;;6.70;;
16159;SDS011;8185;57.818;15.224;2022-10-16T02:05:10;9.93;;;7.23;;
16159;SDS011;8185;57.818;15.224;2022-10-16T02:07:42;9.13;;;7.73;;
16159;SDS011;8185;57.818;15.224;2022-10-16T02:10:10;11.73;;;7.27;;
16159;SDS011;8185;57.818;15.224;2022-10-16T02:12:40;8.30;;;6.53;;
16159;SDS011;8185;57.818;15.224;2022-10-16T02:15:12;12.63;;;7.40;;
16159;SDS011;8185;57.818;15.224;2022-10-16T02:17:39;9.30;;;7.77;;
16159;SDS011;8185;57.818;15.224;2022-10-16T02:20:07;11.80;;;7.70;;
16159;SDS011;8185;57.818;15.224;2022-10-16T02:22:36;11.00;;;7.77;;
16159;SDS011;8185;57.818;15.224;2022-10-16T02:25:08;10.23;;;8.00;;
16159;SDS011;8185;57.818;15.224;2022-10-16T02:27:40;9.50;;;7.03;;
16159;SDS011;8185;57.818;15.224;2022-10-16T02:30:13;9.37;;;6.27;;
16159;SDS011;8185;57.818;15.224;2022-10-16T02:32:46;9.40;;;6.90;;
16159;SDS011;8185;57.818;15.224;2022-10-16T02:35:15;8.00;;;6.77;;
16159;SDS011;8185;57.818;15.224;2022-10-16T02:37:45;9.80;;;6.67;;
16159;SDS011;8185;57.818;15.224;2022-10-16T02:40:14;9.33;;;6.70;;
16159;SDS011;8185;57.818;15.224;2022-10-16T02:42:44;8.10;;;6.57;;
16159;SDS011;8185;57.818;15.224;2022-10-16T02:45:16;11.37;;;7.23;;
16159;SDS011;8185;57.818;15.224;2022-10-16T02:47:44;9.10;;;6.50;;
16159;SDS011;8185;57.818;15.224;2022-10-16T02:50:12;9.90;;;6.97;;
16159;SDS011;8185;57.818;15.224;2022-10-16T02:52:39;7.73;;;6.60;;
16159;SDS011;8185;57.818;15.224;2022-10-16T02:55:07;10.07;;;6.50;;
16159;SDS011;8185;57.818;15.224;2022-10-16T02:57:35;11.00;;;6.50;;
16159;SDS011;8185;57.818;15.224;2022-10-16T03:00:08;8.80;;;6.27;;
16159;SDS011;8185;57.818;15.224;2022-10-16T03:02:37;7.47;;;6.20;;
16159;SDS011;8185;57.818;15.224;2022-10-16T03:05:04;6.90;;;5.97;;
16159;SDS011;8185;57.818;15.224;2022-10-16T03:07:32;8.60;;;6.77;;
16159;SDS011;8185;57.818;15.224;2022-10-16T03:10:00;7.30;;;5.77;;
16159;SDS011;8185;57.818;15.224;2022-10-16T03:12:27;9.40;;;5.70;;
16159;SDS011;8185;57.818;15.224;2022-10-16T03:14:55;6.60;;;5.90;;
16159;SDS011;8185;57.818;15.224;2022-10-16T03:17:24;7.10;;;5.73;;
16159;SDS011;8185;57.818;15.224;2022-10-16T03:19:52;10.47;;;6.40;;
16159;SDS011;8185;57.818;15.224;2022-10-16T03:22:19;7.07;;;5.50;;
16159;SDS011;8185;57.818;15.224;2022-10-16T03:24:46;6.67;;;5.83;;
16159;SDS011;8185;57.818;15.224;2022-10-16T03:27:14;8.17;;;6.50;;
16159;SDS011;8185;57.818;15.224;2022-10-16T03:29:41;8.27;;;6.60;;
16159;SDS011;8185;57.818;15.224;2022-10-16T03:32:08;8.97;;;5.57;;
16159;SDS011;8185;57.818;15.224;2022-10-16T03:34:37;7.33;;;6.07;;
16159;SDS011;8185;57.818;15.224;2022-10-16T03:37:04;8.07;;;6.13;;
16159;SDS011;8185;57.818;15.224;2022-10-16T03:39:32;7.37;;;5.13;;
16159;SDS011;8185;57.818;15.224;2022-10-16T03:41:59;7.03;;;6.10;;
16159;SDS011;8185;57.818;15.224;2022-10-16T03:44:26;6.60;;;6.00;;
16159;SDS011;8185;57.818;15.224;2022-10-16T03:46:54;6.73;;;5.93;;
16159;SDS011;8185;57.818;15.224;2022-10-16T03:49:21;6.20;;;4.97;;
16159;SDS011;8185;57.818;15.224;2022-10-16T03:51:50;7.60;;;5.20;;
16159;SDS011;8185;57.818;15.224;2022-10-16T03:54:17;6.00;;;5.40;;
16159;SDS011;8185;57.818;15.224;2022-10-16T03:56:44;6.60;;;5.53;;
16159;SDS011;8185;57.818;15.224;2022-10-16T03:59:11;6.00;;;5.40;;
16159;SDS011;8185;57.818;15.224;2022-10-16T04:01:39;5.70;;;5.10;;
16159;SDS011;8185;57.818;15.224;2022-10-16T04:04:06;5.43;;;4.90;;
16159;SDS011;8185;57.818;15.224;2022-10-16T04:06:34;8.87;;;5.40;;
16159;SDS011;8185;57.818;15.224;2022-10-16T04:09:03;6.30;;;5.30;;
16159;SDS011;8185;57.818;15.224;2022-10-16T04:11:30;8.13;;;5.97;;
16159;SDS011;8185;57.818;15.224;2022-10-16T04:13:58;6.47;;;4.90;;
16159;SDS011;8185;57.818;15.224;2022-10-16T04:16:25;9.33;;;6.20;;
16159;SDS011;8185;57.818;15.224;2022-10-16T04:18:52;8.90;;;4.77;;
16159;SDS011;8185;57.818;15.224;2022-10-16T04:21:20;8.87;;;5.30;;
16159;SDS011;8185;57.818;15.224;2022-10-16T04:23:47;7.30;;;6.43;;
16159;SDS011;8185;57.818;15.224;2022-10-16T04:26:16;7.30;;;5.90;;
16159;SDS011;8185;57.818;15.224;2022-10-16T04:28:43;8.37;;;6.50;;
16159;SDS011;8185;57.818;15.224;2022-10-16T04:31:11;7.17;;;5.93;;
16159;SDS011;8185;57.818;15.224;2022-10-16T04:33:38;6.97;;;5.37;;
16159;SDS011;8185;57.818;15.224;2022-10-16T04:36:08;7.43;;;5.63;;
16159;SDS011;8185;57.818;15.224;2022-10-16T04:38:36;9.20;;;6.00;;
16159;SDS011;8185;57.818;15.224;2022-10-16T04:41:04;7.87;;;5.13;;
16159;SDS011;8185;57.818;15.224;2022-10-16T04:43:33;7.10;;;5.50;;
16159;SDS011;8185;57.818;15.224;2022-10-16T04:46:01;5.73;;;5.13;;
16159;SDS011;8185;57.818;15.224;2022-10-16T04:48:30;6.30;;;5.13;;
16159;SDS011;8185;57.818;15.224;2022-10-16T04:50:57;6.37;;;5.40;;
16159;SDS011;8185;57.818;15.224;2022-10-16T04:53:24;7.13;;;4.60;;
16159;SDS011;8185;57.818;15.224;2022-10-16T04:55:52;6.13;;;5.33;;
16159;SDS011;8185;57.818;15.224;2022-10-16T04:58:19;7.33;;;4.70;;
16159;SDS011;8185;57.818;15.224;2022-10-16T05:00:48;9.33;;;5.50;;
16159;SDS011;8185;57.818;15.224;2022-10-16T05:03:15;6.83;;;5.43;;
16159;SDS011;8185;57.818;15.224;2022-10-16T05:05:42;8.53;;;5.77;;
16159;SDS011;8185;57.818;15.224;2022-10-16T05:08:10;6.17;;;5.20;;
16159;SDS011;8185;57.818;15.224;2022-10-16T05:10:38;7.10;;;5.23;;
16159;SDS011;8185;57.818;15.224;2022-10-16T05:13:05;6.00;;;5.33;;
16159;SDS011;8185;57.818;15.224;2022-10-16T05:15:33;6.70;;;5.03;;
16159;SDS011;8185;57.818;15.224;2022-10-16T05:18:02;10.87;;;7.93;;
16159;SDS011;8185;57.818;15.224;2022-10-16T05:20:29;9.97;;;5.17;;
16159;SDS011;8185;57.818;15.224;2022-10-16T05:22:57;7.13;;;6.00;;
16159;SDS011;8185;57.818;15.224;2022-10-16T05:25:24;7.87;;;5.50;;
16159;SDS011;8185;57.818;15.224;2022-10-16T05:27:52;8.13;;;5.10;;
16159;SDS011;8185;57.818;15.224;2022-10-16T05:30:19;9.53;;;5.30;;
16159;SDS011;8185;57.818;15.224;2022-10-16T05:32:47;11.43;;;5.70;;
16159;SDS011;8185;57.818;15.224;2022-10-16T05:35:16;6.60;;;5.07;;
16159;SDS011;8185;57.818;15.224;2022-10-16T05:37:45;8.07;;;6.17;;
16159;SDS011;8185;57.818;15.224;2022-10-16T05:40:13;6.80;;;5.20;;
16159;SDS011;8185;57.818;15.224;2022-10-16T05:42:41;6.70;;;5.23;;
16159;SDS011;8185;57.818;15.224;2022-10-16T05:45:09;7.90;;;5.23;;
16159;SDS011;8185;57.818;15.224;2022-10-16T05:47:38;7.77;;;6.27;;
16159;SDS011;8185;57.818;15.224;2022-10-16T05:50:05;7.33;;;5.37;;
16159;SDS011;8185;57.818;15.224;2022-10-16T05:52:34;12.53;;;5.77;;
16159;SDS011;8185;57.818;15.224;2022-10-16T05:55:02;8.63;;;5.57;;
16159;SDS011;8185;57.818;15.224;2022-10-16T05:57:30;7.60;;;5.47;;
16159;SDS011;8185;57.818;15.224;2022-10-16T05:59:57;8.13;;;5.60;;
16159;SDS011;8185;57.818;15.224;2022-10-16T06:02:24;9.27;;;5.53;;
16159;SDS011;8185;57.818;15.224;2022-10-16T06:04:52;7.63;;;4.83;;
16159;SDS011;8185;57.818;15.224;2022-10-16T06:07:20;5.77;;;4.90;;
16159;SDS011;8185;57.818;15.224;2022-10-16T06:09:49;8.37;;;4.73;;
16159;SDS011;8185;57.818;15.224;2022-10-16T06:12:17;8.27;;;5.37;;
16159;SDS011;8185;57.818;15.224;2022-10-16T06:14:44;6.70;;;4.63;;
16159;SDS011;8185;57.818;15.224;2022-10-16T06:17:12;7.83;;;5.30;;
16159;SDS011;8185;57.818;15.224;2022-10-16T06:19:40;8.67;;;5.33;;
16159;SDS011;8185;57.818;15.224;2022-10-16T06:22:07;9.47;;;4.90;;
16159;SDS011;8185;57.818;15.224;2022-10-16T06:24:34;5.57;;;4.43;;
16159;SDS011;8185;57.818;15.224;2022-10-16T06:27:04;8.23;;;5.23;;
16159;SDS011;8185;57.818;15.224;2022-10-16T06:29:31;9.07;;;5.33;;
16159;SDS011;8185;57.818;15.224;2022-10-16T06:31:59;9.17;;;5.53;;
16159;SDS011;8185;57.818;15.224;2022-10-16T06:34:26;7.00;;;5.30;;
16159;SDS011;8185;57.818;15.224;2022-10-16T06:36:53;6.80;;;4.87;;
16159;SDS011;8185;57.818;15.224;2022-10-16T06:39:21;6.37;;;4.43;;
16159;SDS011;8185;57.818;15.224;2022-10-16T06:41:48;12.50;;;6.03;;
16159;SDS011;8185;57.818;15.224;2022-10-16T06:44:17;8.60;;;5.03;;
16159;SDS011;8185;57.818;15.224;2022-10-16T06:46:44;11.47;;;4.37;;
16159;SDS011;8185;57.818;15.224;2022-10-16T06:49:12;6.97;;;5.20;;
16159;SDS011;8185;57.818;15.224;2022-10-16T06:51:46;7.23;;;4.90;;
16159;SDS011;8185;57.818;15.224;2022-10-16T06:54:14;8.87;;;4.17;;
16159;SDS011;8185;57.818;15.224;2022-10-16T06:56:43;10.23;;;4.60;;
16159;SDS011;8185;57.818;15.224;2022-10-16T06:59:11;6.87;;;4.43;;
16159;SDS011;8185;57.818;15.224;2022-10-16T07:01:39;9.30;;;4.27;;
16159;SDS011;8185;57.818;15.224;2022-10-16T07:04:07;4.83;;;4.33;;
16159;SDS011;8185;57.818;15.224;2022-10-16T07:06:34;5.10;;;3.47;;
16159;SDS011;8185;57.818;15.224;2022-10-16T07:09:03;8.70;;;4.43;;
16159;SDS011;8185;57.818;15.224;2022-10-16T07:11:32;6.80;;;3.80;;
16159;SDS011;8185;57.818;15.224;2022-10-16T07:13:59;5.23;;;3.90;;
16159;SDS011;8185;57.818;15.224;2022-10-16T07:16:27;4.33;;;3.57;;
16159;SDS011;8185;57.818;15.224;2022-10-16T07:18:57;6.97;;;4.17;;
16159;SDS011;8185;57.818;15.224;2022-10-16T07:21:26;7.57;;;4.00;;
16159;SDS011;8185;57.818;15.224;2022-10-16T07:23:57;6.70;;;3.80;;
16159;SDS011;8185;57.818;15.224;2022-10-16T07:26:26;6.30;;;3.90;;
16159;SDS011;8185;57.818;15.224;2022-10-16T07:28:55;6.90;;;4.03;;
16159;SDS011;8185;57.818;15.224;2022-10-16T07:31:23;8.27;;;3.90;;
16159;SDS011;8185;57.818;15.224;2022-10-16T07:33:51;7.93;;;3.63;;
16159;SDS011;8185;57.818;15.224;2022-10-16T07:36:20;6.80;;;3.60;;
16159;SDS011;8185;57.818;15.224;2022-10-16T07:38:48;7.40;;;3.90;;
16159;SDS011;8185;57.818;15.224;2022-10-16T07:41:16;6.33;;;3.90;;
16159;SDS011;8185;57.818;15.224;2022-10-16T07:43:45;6.33;;;3.60;;
16159;SDS011;8185;57.818;15.224;2022-10-16T07:46:13;5.30;;;3.73;;
16159;SDS011;8185;57.818;15.224;2022-10-16T07:48:41;7.00;;;4.20;;
16159;SDS011;8185;57.818;15.224;2022-10-16T07:51:12;6.07;;;3.80;;
16159;SDS011;8185;57.818;15.224;2022-10-16T07:53:42;5.87;;;3.97;;
16159;SDS011;8185;57.818;15.224;2022-10-16T07:56:10;5.97;;;3.20;;
16159;SDS011;8185;57.818;15.224;2022-10-16T07:58:38;6.90;;;3.80;;
16159;SDS011;8185;57.818;15.224;2022-10-16T08:01:06;6.20;;;3.37;;
16159;SDS011;8185;57.818;15.224;2022-10-16T08:03:34;6.10;;;3.77;;
16159;SDS011;8185;57.818;15.224;2022-10-16T08:06:02;7.33;;;3.67;;
16159;SDS011;8185;57.818;15.224;2022-10-16T08:08:30;5.97;;;3.50;;
16159;SDS011;8185;57.818;15.224;2022-10-16T08:10:59;6.00;;;3.20;;
16159;SDS011;8185;57.818;15.224;2022-10-16T08:13:29;5.00;;;3.57;;
16159;SDS011;8185;57.818;15.224;2022-10-16T08:15:56;6.77;;;3.90;;
16159;SDS011;8185;57.818;15.224;2022-10-16T08:18:24;7.43;;;3.80;;
16159;SDS011;8185;57.818;15.224;2022-10-16T08:20:55;7.87;;;3.63;;
16159;SDS011;8185;57.818;15.224;2022-10-16T08:23:23;4.43;;;3.20;;
16159;SDS011;8185;57.818;15.224;2022-10-16T08:25:51;7.60;;;4.00;;
16159;SDS011;8185;57.818;15.224;2022-10-16T08:28:21;6.60;;;3.27;;
16159;SDS011;8185;57.818;15.224;2022-10-16T08:30:49;10.03;;;3.63;;
16159;SDS011;8185;57.818;15.224;2022-10-16T08:33:16;7.00;;;3.53;;
16159;SDS011;8185;57.818;15.224;2022-10-16T08:35:49;5.23;;;3.57;;
16159;SDS011;8185;57.818;15.224;2022-10-16T08:38:18;5.67;;;3.80;;
16159;SDS011;8185;57.818;15.224;2022-10-16T08:40:46;6.03;;;3.50;;
16159;SDS011;8185;57.818;15.224;2022-10-16T08:43:18;6.80;;;3.23;;
16159;SDS011;8185;57.818;15.224;2022-10-16T08:46:07;6.33;;;2.93;;
16159;SDS011;8185;57.818;15.224;2022-10-16T08:48:52;6.23;;;2.70;;
16159;SDS011;8185;57.818;15.224;2022-10-16T08:51:22;5.57;;;2.87;;
16159;SDS011;8185;57.818;15.224;2022-10-16T08:53:53;3.23;;;2.53;;
16159;SDS011;8185;57.818;15.224;2022-10-16T08:56:23;5.53;;;2.40;;
16159;SDS011;8185;57.818;15.224;2022-10-16T08:58:53;3.87;;;2.43;;
16159;SDS011;8185;57.818;15.224;2022-10-16T09:01:21;5.33;;;2.50;;
16159;SDS011;8185;57.818;15.224;2022-10-16T09:07:09;5.90;;;2.40;;
16159;SDS011;8185;57.818;15.224;2022-10-16T09:09:49;2.93;;;2.20;;
16159;SDS011;8185;57.818;15.224;2022-10-16T09:12:28;4.60;;;1.93;;
16159;SDS011;8185;57.818;15.224;2022-10-16T09:15:05;5.20;;;2.10;;
16159;SDS011;8185;57.818;15.224;2022-10-16T09:17:43;4.63;;;2.27;;
16159;SDS011;8185;57.818;15.224;2022-10-16T09:20:19;4.07;;;1.87;;
16159;SDS011;8185;57.818;15.224;2022-10-16T09:23:00;5.60;;;2.10;;
16159;SDS011;8185;57.818;15.224;2022-10-16T09:25:39;4.90;;;2.30;;
16159;SDS011;8185;57.818;15.224;2022-10-16T09:28:09;5.27;;;2.50;;
16159;SDS011;8185;57.818;15.224;2022-10-16T09:30:38;2.53;;;1.73;;
16159;SDS011;8185;57.818;15.224;2022-10-16T09:33:06;4.20;;;2.30;;
16159;SDS011;8185;57.818;15.224;2022-10-16T09:35:36;15.17;;;2.50;;
16159;SDS011;8185;57.818;15.224;2022-10-16T09:38:06;7.30;;;2.03;;
16159;SDS011;8185;57.818;15.224;2022-10-16T09:40:35;6.83;;;1.73;;
16159;SDS011;8185;57.818;15.224;2022-10-16T09:43:06;3.17;;;1.50;;
16159;SDS011;8185;57.818;15.224;2022-10-16T09:45:54;3.37;;;1.67;;
16159;SDS011;8185;57.818;15.224;2022-10-16T09:48:23;3.63;;;1.67;;
16159;SDS011;8185;57.818;15.224;2022-10-16T09:50:56;5.37;;;1.63;;
16159;SDS011;8185;57.818;15.224;2022-10-16T09:53:26;4.93;;;2.03;;
16159;SDS011;8185;57.818;15.224;2022-10-16T09:56:05;3.20;;;1.20;;
16159;SDS011;8185;57.818;15.224;2022-10-16T09:58:32;3.13;;;1.67;;
16159;SDS011;8185;57.818;15.224;2022-10-16T10:01:01;4.73;;;1.57;;
16159;SDS011;8185;57.818;15.224;2022-10-16T10:03:36;4.37;;;1.70;;
16159;SDS011;8185;57.818;15.224;2022-10-16T10:06:14;4.07;;;1.73;;
16159;SDS011;8185;57.818;15.224;2022-10-16T10:08:55;8.43;;;1.87;;
16159;SDS011;8185;57.818;15.224;2022-10-16T10:11:44;6.83;;;1.50;;
16159;SDS011;8185;57.818;15.224;2022-10-16T10:14:22;6.63;;;1.57;;
16159;SDS011;8185;57.818;15.224;2022-10-16T10:17:14;4.17;;;1.80;;
16159;SDS011;8185;57.818;15.224;2022-10-16T10:19:46;4.40;;;1.50;;
16159;SDS011;8185;57.818;15.224;2022-10-16T10:22:19;3.23;;;1.60;;
16159;SDS011;8185;57.818;15.224;2022-10-16T10:24:57;4.27;;;1.30;;
16159;SDS011;8185;57.818;15.224;2022-10-16T10:27:43;9.37;;;1.90;;
16159;SDS011;8185;57.818;15.224;2022-10-16T10:30:19;4.13;;;1.40;;
16159;SDS011;8185;57.818;15.224;2022-10-16T10:32:54;5.27;;;1.67;;
16159;SDS011;8185;57.818;15.224;2022-10-16T10:35:36;5.33;;;1.60;;
16159;SDS011;8185;57.818;15.224;2022-10-16T10:38:12;4.37;;;1.57;;
16159;SDS011;8185;57.818;15.224;2022-10-16T10:40:52;4.43;;;1.73;;
16159;SDS011;8185;57.818;15.224;2022-10-16T10:43:32;6.47;;;1.40;;
16159;SDS011;8185;57.818;15.224;2022-10-16T10:46:09;7.47;;;1.53;;
16159;SDS011;8185;57.818;15.224;2022-10-16T10:48:57;6.03;;;1.70;;
16159;SDS011;8185;57.818;15.224;2022-10-16T10:51:49;5.50;;;1.37;;
16159;SDS011;8185;57.818;15.224;2022-10-16T10:54:28;5.87;;;1.20;;
16159;SDS011;8185;57.818;15.224;2022-10-16T10:57:07;4.87;;;1.00;;
16159;SDS011;8185;57.818;15.224;2022-10-16T10:59:46;11.00;;;2.17;;
16159;SDS011;8185;57.818;15.224;2022-10-16T11:02:26;2.83;;;0.90;;
16159;SDS011;8185;57.818;15.224;2022-10-16T11:08:00;5.17;;;1.37;;
16159;SDS011;8185;57.818;15.224;2022-10-16T11:10:33;3.50;;;1.10;;
16159;SDS011;8185;57.818;15.224;2022-10-16T11:13:17;7.47;;;1.47;;
16159;SDS011;8185;57.818;15.224;2022-10-16T11:15:53;3.30;;;1.60;;
16159;SDS011;8185;57.818;15.224;2022-10-16T11:18:26;2.87;;;1.10;;
16159;SDS011;8185;57.818;15.224;2022-10-16T11:21:02;5.73;;;1.70;;
16159;SDS011;8185;57.818;15.224;2022-10-16T11:23:35;3.60;;;1.23;;
16159;SDS011;8185;57.818;15.224;2022-10-16T11:26:09;5.57;;;1.50;;
16159;SDS011;8185;57.818;15.224;2022-10-16T11:28:43;5.50;;;1.53;;
16159;SDS011;8185;57.818;15.224;2022-10-16T11:31:16;5.03;;;1.50;;
16159;SDS011;8185;57.818;15.224;2022-10-16T11:33:49;6.50;;;1.67;;
16159;SDS011;8185;57.818;15.224;2022-10-16T11:36:23;4.13;;;1.37;;
16159;SDS011;8185;57.818;15.224;2022-10-16T11:38:58;2.60;;;1.00;;
16159;SDS011;8185;57.818;15.224;2022-10-16T11:41:32;4.23;;;1.43;;
16159;SDS011;8185;57.818;15.224;2022-10-16T11:44:14;7.50;;;1.57;;
16159;SDS011;8185;57.818;15.224;2022-10-16T11:47:01;4.80;;;1.57;;
16159;SDS011;8185;57.818;15.224;2022-10-16T11:49:36;8.17;;;1.77;;
16159;SDS011;8185;57.818;15.224;2022-10-16T11:52:07;5.67;;;1.40;;
16159;SDS011;8185;57.818;15.224;2022-10-16T11:54:43;6.83;;;2.00;;
16159;SDS011;8185;57.818;15.224;2022-10-16T11:57:16;4.13;;;0.97;;
16159;SDS011;8185;57.818;15.224;2022-10-16T11:59:48;3.93;;;1.47;;
16159;SDS011;8185;57.818;15.224;2022-10-16T12:02:27;3.17;;;1.53;;
16159;SDS011;8185;57.818;15.224;2022-10-16T12:05:01;7.13;;;2.17;;
16159;SDS011;8185;57.818;15.224;2022-10-16T12:07:40;6.30;;;1.67;;
16159;SDS011;8185;57.818;15.224;2022-10-16T12:10:19;4.80;;;1.40;;
16159;SDS011;8185;57.818;15.224;2022-10-16T12:12:48;5.13;;;1.80;;
16159;SDS011;8185;57.818;15.224;2022-10-16T12:15:20;6.27;;;1.30;;
16159;SDS011;8185;57.818;15.224;2022-10-16T12:17:49;3.87;;;1.23;;
16159;SDS011;8185;57.818;15.224;2022-10-16T12:20:27;4.87;;;1.30;;
16159;SDS011;8185;57.818;15.224;2022-10-16T12:22:59;5.90;;;1.30;;
16159;SDS011;8185;57.818;15.224;2022-10-16T12:25:28;5.00;;;1.40;;
16159;SDS011;8185;57.818;15.224;2022-10-16T12:27:59;5.17;;;1.67;;
16159;SDS011;8185;57.818;15.224;2022-10-16T12:30:28;5.47;;;1.60;;
16159;SDS011;8185;57.818;15.224;2022-10-16T12:32:58;5.93;;;1.73;;
16159;SDS011;8185;57.818;15.224;2022-10-16T12:35:29;5.50;;;1.47;;
16159;SDS011;8185;57.818;15.224;2022-10-16T12:38:14;5.27;;;1.27;;
16159;SDS011;8185;57.818;15.224;2022-10-16T12:40:44;2.67;;;1.23;;
16159;SDS011;8185;57.818;15.224;2022-10-16T12:46:04;6.57;;;1.60;;
16159;SDS011;8185;57.818;15.224;2022-10-16T12:48:47;5.93;;;1.27;;
16159;SDS011;8185;57.818;15.224;2022-10-16T12:51:22;6.33;;;1.07;;
16159;SDS011;8185;57.818;15.224;2022-10-16T12:54:00;3.03;;;0.93;;
16159;SDS011;8185;57.818;15.224;2022-10-16T12:56:32;3.77;;;0.93;;
16159;SDS011;8185;57.818;15.224;2022-10-16T12:59:09;7.77;;;2.20;;
16159;SDS011;8185;57.818;15.224;2022-10-16T13:02:03;6.53;;;2.03;;
16159;SDS011;8185;57.818;15.224;2022-10-16T13:04:51;5.90;;;1.30;;
16159;SDS011;8185;57.818;15.224;2022-10-16T13:07:40;3.83;;;1.20;;
16159;SDS011;8185;57.818;15.224;2022-10-16T13:10:20;6.53;;;1.80;;
16159;SDS011;8185;57.818;15.224;2022-10-16T13:15:57;7.17;;;1.83;;
16159;SDS011;8185;57.818;15.224;2022-10-16T13:18:34;6.30;;;1.30;;
16159;SDS011;8185;57.818;15.224;2022-10-16T13:21:11;5.10;;;1.30;;
16159;SDS011;8185;57.818;15.224;2022-10-16T13:23:48;3.27;;;1.50;;
16159;SDS011;8185;57.818;15.224;2022-10-16T13:26:26;3.33;;;1.13;;
16159;SDS011;8185;57.818;15.224;2022-10-16T13:29:04;5.23;;;1.53;;
16159;SDS011;8185;57.818;15.224;2022-10-16T13:31:32;7.13;;;1.43;;
16159;SDS011;8185;57.818;15.224;2022-10-16T13:33:59;3.37;;;1.10;;
16159;SDS011;8185;57.818;15.224;2022-10-16T13:36:28;3.57;;;1.53;;
16159;SDS011;8185;57.818;15.224;2022-10-16T13:41:48;4.67;;;1.20;;
16159;SDS011;8185;57.818;15.224;2022-10-16T13:44:35;3.33;;;1.00;;
16159;SDS011;8185;57.818;15.224;2022-10-16T13:47:11;6.17;;;1.23;;
16159;SDS011;8185;57.818;15.224;2022-10-16T13:49:42;4.17;;;0.90;;
16159;SDS011;8185;57.818;15.224;2022-10-16T13:52:15;2.20;;;0.80;;
16159;SDS011;8185;57.818;15.224;2022-10-16T13:54:44;6.27;;;1.10;;
16159;SDS011;8185;57.818;15.224;2022-10-16T13:57:14;3.87;;;1.33;;
16159;SDS011;8185;57.818;15.224;2022-10-16T13:59:43;3.97;;;1.40;;
16159;SDS011;8185;57.818;15.224;2022-10-16T14:02:15;6.47;;;2.00;;
16159;SDS011;8185;57.818;15.224;2022-10-16T14:04:46;6.77;;;1.50;;
16159;SDS011;8185;57.818;15.224;2022-10-16T14:07:20;6.23;;;1.30;;
16159;SDS011;8185;57.818;15.224;2022-10-16T14:09:51;6.57;;;1.17;;
16159;SDS011;8185;57.818;15.224;2022-10-16T14:12:21;5.37;;;1.40;;
16159;SDS011;8185;57.818;15.224;2022-10-16T14:14:50;2.83;;;1.17;;
16159;SDS011;8185;57.818;15.224;2022-10-16T14:17:20;4.03;;;0.93;;
16159;SDS011;8185;57.818;15.224;2022-10-16T14:19:52;4.33;;;1.23;;
16159;SDS011;8185;57.818;15.224;2022-10-16T14:22:25;2.17;;;1.20;;
16159;SDS011;8185;57.818;15.224;2022-10-16T14:24:56;3.57;;;1.37;;
16159;SDS011;8185;57.818;15.224;2022-10-16T14:27:28;3.87;;;0.77;;
16159;SDS011;8185;57.818;15.224;2022-10-16T14:30:09;3.70;;;0.90;;
16159;SDS011;8185;57.818;15.224;2022-10-16T14:32:41;6.07;;;0.60;;
16159;SDS011;8185;57.818;15.224;2022-10-16T14:35:24;2.10;;;0.70;;
16159;SDS011;8185;57.818;15.224;2022-10-16T14:37:53;2.23;;;0.73;;
16159;SDS011;8185;57.818;15.224;2022-10-16T14:40:22;2.40;;;0.50;;
16159;SDS011;8185;57.818;15.224;2022-10-16T14:42:53;2.13;;;1.43;;
16159;SDS011;8185;57.818;15.224;2022-10-16T14:45:21;3.33;;;1.03;;
16159;SDS011;8185;57.818;15.224;2022-10-16T14:47:52;7.13;;;4.93;;
16159;SDS011;8185;57.818;15.224;2022-10-16T14:50:22;4.33;;;3.30;;
16159;SDS011;8185;57.818;15.224;2022-10-16T14:52:50;5.77;;;3.47;;
16159;SDS011;8185;57.818;15.224;2022-10-16T14:55:17;4.13;;;3.13;;
16159;SDS011;8185;57.818;15.224;2022-10-16T14:57:45;3.43;;;2.07;;
16159;SDS011;8185;57.818;15.224;2022-10-16T15:00:18;3.00;;;0.70;;
16159;SDS011;8185;57.818;15.224;2022-10-16T15:02:48;3.63;;;1.10;;
16159;SDS011;8185;57.818;15.224;2022-10-16T15:05:17;3.13;;;0.63;;
16159;SDS011;8185;57.818;15.224;2022-10-16T15:07:46;4.20;;;0.90;;
16159;SDS011;8185;57.818;15.224;2022-10-16T15:10:14;3.63;;;0.70;;
16159;SDS011;8185;57.818;15.224;2022-10-16T15:12:43;2.00;;;0.60;;
16159;SDS011;8185;57.818;15.224;2022-10-16T15:18:04;4.63;;;1.30;;
16159;SDS011;8185;57.818;15.224;2022-10-16T15:20:32;2.40;;;0.67;;
16159;SDS011;8185;57.818;15.224;2022-10-16T15:23:01;1.63;;;0.70;;
16159;SDS011;8185;57.818;15.224;2022-10-16T15:25:30;2.63;;;0.73;;
16159;SDS011;8185;57.818;15.224;2022-10-16T15:28:04;1.57;;;0.67;;
16159;SDS011;8185;57.818;15.224;2022-10-16T15:30:32;3.57;;;0.90;;